Time;durP1;ratioP1;P1;durP2;ratioP2;P2;SDS_P1;SDS_P2;PMS_P1;PMS_P2;Temp;Humidity;BMP_temperature;BMP_pressure;BME280_temperature;BME280_humidity;BME280_pressure;Samples;Min_cycle;Max_cycle;Signal;HPM_P1;HPM_P2
2021/12/25 00:01:55;;;;;;;401.77;76.75;;;;;;;;;;5090460;28;20271;-68
2021/12/25 00:04:23;;;;;;;390.33;69.88;;;;;;;;;;5090557;28;20284;-67
2021/12/25 00:06:50;;;;;;;392.83;70.90;;;;;;;;;;5090573;28;20232;-68
2021/12/25 00:09:18;;;;;;;393.80;69.70;;;;;;;;;;5090386;28;20207;-68
2021/12/25 00:11:45;;;;;;;398.58;71.78;;;;;;;;;;5090213;28;20207;-75
2021/12/25 00:14:13;;;;;;;394.95;70.10;;;;;;;;;;5090294;28;20234;-68
2021/12/25 00:16:42;;;;;;;396.40;69.85;;;;;;;;;;5090465;28;20204;-68
2021/12/25 00:19:09;;;;;;;393.65;71.30;;;;;;;;;;5090384;28;20211;-68
2021/12/25 00:21:36;;;;;;;400.20;72.88;;;;;;;;;;5090251;28;20208;-68
2021/12/25 00:24:04;;;;;;;403.35;79.50;;;;;;;;;;5090134;28;20232;-68
2021/12/25 00:26:49;;;;;;;397.75;72.90;;;;;;;;;;5090312;28;20621;-68
2021/12/25 00:32:14;;;;;;;384.98;73.43;;;;;;;;;;5088002;28;20215;-67
2021/12/25 00:34:41;;;;;;;384.45;67.53;;;;;;;;;;5093277;28;20332;-69
2021/12/25 00:37:09;;;;;;;384.50;67.75;;;;;;;;;;5094257;28;20206;-68
2021/12/25 00:39:37;;;;;;;398.45;73.70;;;;;;;;;;5094127;28;20291;-68
2021/12/25 00:42:07;;;;;;;390.38;71.47;;;;;;;;;;5093994;28;20308;-67
2021/12/25 00:44:35;;;;;;;385.50;69.60;;;;;;;;;;5093929;28;20211;-67
2021/12/25 00:47:04;;;;;;;393.40;71.57;;;;;;;;;;5094107;28;20252;-68
2021/12/25 00:49:31;;;;;;;384.17;67.72;;;;;;;;;;5093889;28;20686;-69
2021/12/25 00:51:58;;;;;;;394.35;74.60;;;;;;;;;;5093771;28;20200;-68
2021/12/25 00:54:26;;;;;;;384.08;68.95;;;;;;;;;;5093887;28;20259;-69
2021/12/25 00:56:53;;;;;;;389.25;69.10;;;;;;;;;;5093721;28;20207;-67
2021/12/25 00:59:21;;;;;;;393.30;71.07;;;;;;;;;;5093461;28;20321;-68
2021/12/25 01:01:48;;;;;;;389.02;71.75;;;;;;;;;;5093558;28;20218;-67
2021/12/25 01:04:17;;;;;;;394.88;71.88;;;;;;;;;;5093787;28;20204;-69
2021/12/25 01:06:45;;;;;;;391.83;71.63;;;;;;;;;;5093463;28;20207;-68
2021/12/25 01:09:12;;;;;;;386.30;68.13;;;;;;;;;;5093518;28;20219;-69
2021/12/25 01:11:42;;;;;;;398.17;74.55;;;;;;;;;;5086669;28;20222;-68
2021/12/25 01:14:19;;;;;;;405.87;74.70;;;;;;;;;;5093246;28;20682;-68
2021/12/25 01:17:01;;;;;;;401.60;75.65;;;;;;;;;;5086574;28;20210;-69
2021/12/25 01:22:55;;;;;;;391.98;73.80;;;;;;;;;;5093262;28;20214;-68
2021/12/25 01:28:48;;;;;;;399.40;74.70;;;;;;;;;;5069589;28;20297;-69
2021/12/25 01:31:17;;;;;;;388.95;72.50;;;;;;;;;;5092992;28;20208;-68
2021/12/25 01:34:25;;;;;;;401.55;76.28;;;;;;;;;;5092754;28;20248;-69
2021/12/25 01:37:15;;;;;;;409.17;76.05;;;;;;;;;;5092879;28;20297;-68
2021/12/25 01:39:53;;;;;;;401.45;76.95;;;;;;;;;;5092775;28;20210;-68
2021/12/25 01:47:52;;;;;;;400.35;77.65;;;;;;;;;;5088135;28;21003;-68
2021/12/25 01:50:21;;;;;;;395.40;72.97;;;;;;;;;;5092772;28;20234;-69
2021/12/25 01:52:49;;;;;;;391.85;71.93;;;;;;;;;;5092976;28;20238;-69
2021/12/25 01:55:18;;;;;;;397.42;74.90;;;;;;;;;;5085927;28;20700;-69
2021/12/25 01:57:45;;;;;;;398.67;75.82;;;;;;;;;;5092268;28;20264;-69
2021/12/25 02:00:15;;;;;;;393.35;70.93;;;;;;;;;;5092740;28;20331;-68
2021/12/25 02:02:43;;;;;;;388.10;71.05;;;;;;;;;;5092605;28;20207;-68
2021/12/25 02:05:10;;;;;;;393.80;71.30;;;;;;;;;;5092479;28;20212;-68
2021/12/25 02:07:38;;;;;;;395.55;72.82;;;;;;;;;;5092433;28;20246;-68
2021/12/25 02:10:07;;;;;;;399.65;71.07;;;;;;;;;;5092012;28;20625;-68
2021/12/25 02:12:35;;;;;;;388.00;70.60;;;;;;;;;;5092810;28;20208;-68
2021/12/25 02:15:07;;;;;;;386.75;71.03;;;;;;;;;;5092533;28;20751;-71
2021/12/25 02:17:53;;;;;;;392.80;71.55;;;;;;;;;;5092676;28;20269;-68
2021/12/25 02:20:28;;;;;;;392.88;71.47;;;;;;;;;;5092081;28;20211;-68
2021/12/25 02:23:01;;;;;;;391.77;74.25;;;;;;;;;;5092245;28;20589;-68
2021/12/25 02:25:29;;;;;;;387.05;69.13;;;;;;;;;;5092195;28;20210;-68
2021/12/25 02:27:56;;;;;;;392.80;75.18;;;;;;;;;;5092074;28;20678;-69
2021/12/25 02:30:24;;;;;;;393.17;70.13;;;;;;;;;;5092011;28;20208;-68
2021/12/25 02:32:51;;;;;;;391.50;71.15;;;;;;;;;;5084727;28;20293;-69
2021/12/25 02:35:19;;;;;;;391.73;69.15;;;;;;;;;;5091711;28;20222;-69
2021/12/25 02:37:48;;;;;;;387.60;69.25;;;;;;;;;;5091839;28;20307;-69
2021/12/25 02:40:15;;;;;;;397.23;71.75;;;;;;;;;;5091718;28;20216;-68
2021/12/25 02:42:43;;;;;;;391.15;70.50;;;;;;;;;;5091782;28;20215;-69
2021/12/25 02:45:17;;;;;;;394.05;70.75;;;;;;;;;;5091776;28;20295;-68
2021/12/25 02:47:46;;;;;;;394.17;72.40;;;;;;;;;;5091662;28;20242;-72
2021/12/25 02:50:13;;;;;;;385.85;69.32;;;;;;;;;;5091539;28;20211;-68
2021/12/25 02:52:43;;;;;;;385.02;68.28;;;;;;;;;;5091428;28;20572;-69
2021/12/25 02:55:12;;;;;;;393.17;69.18;;;;;;;;;;5091504;28;20225;-68
2021/12/25 02:57:39;;;;;;;396.33;73.50;;;;;;;;;;5091257;28;20722;-68
2021/12/25 03:00:09;;;;;;;390.13;70.15;;;;;;;;;;5090757;28;20762;-69
2021/12/25 03:02:37;;;;;;;389.27;69.50;;;;;;;;;;5091261;28;20218;-70
2021/12/25 03:05:04;;;;;;;387.20;68.82;;;;;;;;;;5091450;28;20209;-68
2021/12/25 03:07:32;;;;;;;385.85;67.40;;;;;;;;;;5091374;28;20392;-68
2021/12/25 03:09:59;;;;;;;394.15;74.63;;;;;;;;;;5090858;28;20671;-68
2021/12/25 03:12:35;;;;;;;385.95;69.50;;;;;;;;;;5091182;28;20238;-69
2021/12/25 03:15:06;;;;;;;387.95;70.05;;;;;;;;;;5091556;28;20231;-69
2021/12/25 03:17:34;;;;;;;384.63;67.70;;;;;;;;;;5091790;28;20210;-68
2021/12/25 03:20:02;;;;;;;393.67;75.25;;;;;;;;;;5091027;28;20672;-69
2021/12/25 03:22:29;;;;;;;385.77;70.05;;;;;;;;;;5091180;28;20295;-68
2021/12/25 03:24:56;;;;;;;387.88;68.53;;;;;;;;;;5090927;28;20601;-69
2021/12/25 03:27:24;;;;;;;386.00;67.90;;;;;;;;;;5091023;28;20208;-68
2021/12/25 03:29:53;;;;;;;395.25;76.22;;;;;;;;;;5090952;28;20207;-68
2021/12/25 03:32:20;;;;;;;389.90;72.20;;;;;;;;;;5091036;28;20204;-68
2021/12/25 03:34:48;;;;;;;393.52;74.07;;;;;;;;;;5090690;28;20235;-69
2021/12/25 03:37:15;;;;;;;394.88;73.45;;;;;;;;;;5090845;28;20204;-68
2021/12/25 03:39:42;;;;;;;396.48;74.65;;;;;;;;;;5090660;28;20211;-68
2021/12/25 03:42:10;;;;;;;393.85;72.18;;;;;;;;;;5091095;28;20229;-68
2021/12/25 03:44:37;;;;;;;387.30;69.80;;;;;;;;;;5084181;28;20298;-69
2021/12/25 03:47:21;;;;;;;387.73;70.97;;;;;;;;;;5090719;28;20207;-68
2021/12/25 03:58:07;;;;;;;391.30;73.55;;;;;;;;;;5091071;28;20209;-68
2021/12/25 04:00:36;;;;;;;383.15;68.65;;;;;;;;;;5090467;28;20287;-68
2021/12/25 04:03:09;;;;;;;384.50;68.13;;;;;;;;;;5090475;28;20695;-68
2021/12/25 04:05:40;;;;;;;385.83;67.97;;;;;;;;;;5090856;28;20637;-68
2021/12/25 04:08:09;;;;;;;385.33;69.05;;;;;;;;;;5092965;28;20211;-69
2021/12/25 04:10:39;;;;;;;386.83;70.00;;;;;;;;;;5094686;28;20304;-69
2021/12/25 04:13:08;;;;;;;392.90;71.38;;;;;;;;;;5094319;28;20271;-72
2021/12/25 04:15:35;;;;;;;386.48;70.20;;;;;;;;;;5094403;28;20227;-68
2021/12/25 04:18:04;;;;;;;402.63;79.97;;;;;;;;;;5094557;28;20239;-68
2021/12/25 04:20:33;;;;;;;386.40;69.88;;;;;;;;;;5094642;28;20203;-69
2021/12/25 04:23:04;;;;;;;390.10;71.60;;;;;;;;;;5094285;28;20213;-68
2021/12/25 04:25:34;;;;;;;386.88;69.63;;;;;;;;;;5094508;28;20218;-69
2021/12/25 04:28:08;;;;;;;396.42;73.63;;;;;;;;;;5094027;28;20216;-68
2021/12/25 04:30:46;;;;;;;387.20;70.63;;;;;;;;;;5094282;28;20330;-68
2021/12/25 04:42:41;;;;;;;386.20;68.85;;;;;;;;;;5094233;28;20230;-68
2021/12/25 05:01:40;;;;;;;382.95;67.65;;;;;;;;;;5068743;28;20208;-68
2021/12/25 05:01:56;;;;;;;384.58;68.80;;;;;;;;;;5093781;28;20215;-68
2021/12/25 05:04:28;;;;;;;387.05;68.70;;;;;;;;;;5093807;28;20210;-69
2021/12/25 05:06:55;;;;;;;390.10;68.57;;;;;;;;;;5093652;28;20297;-68
2021/12/25 05:09:24;;;;;;;390.63;70.53;;;;;;;;;;5093389;28;20210;-68
2021/12/25 05:11:51;;;;;;;400.30;75.07;;;;;;;;;;5093436;28;20234;-68
2021/12/25 05:14:19;;;;;;;387.70;67.60;;;;;;;;;;5093633;28;20214;-69
2021/12/25 05:16:46;;;;;;;389.48;70.47;;;;;;;;;;5093251;28;20230;-69
2021/12/25 05:19:13;;;;;;;387.98;71.15;;;;;;;;;;5092546;28;20213;-68
2021/12/25 05:21:41;;;;;;;389.02;72.10;;;;;;;;;;5093178;28;20217;-68
2021/12/25 05:24:08;;;;;;;386.25;69.40;;;;;;;;;;5093236;28;20204;-68
2021/12/25 05:26:37;;;;;;;391.85;71.70;;;;;;;;;;5093087;28;20218;-68
2021/12/25 05:29:06;;;;;;;384.25;69.28;;;;;;;;;;5093218;28;20306;-68
2021/12/25 05:31:36;;;;;;;385.65;68.75;;;;;;;;;;5093230;28;20279;-68
2021/12/25 05:34:03;;;;;;;390.60;74.88;;;;;;;;;;5093049;28;20238;-67
2021/12/25 05:36:31;;;;;;;386.80;69.60;;;;;;;;;;5092844;28;20232;-68
2021/12/25 05:38:59;;;;;;;383.08;68.40;;;;;;;;;;5093161;28;20204;-68
2021/12/25 05:41:27;;;;;;;386.30;69.10;;;;;;;;;;5093361;28;20728;-69
2021/12/25 05:43:56;;;;;;;391.88;74.35;;;;;;;;;;5092668;28;20291;-68
2021/12/25 05:46:24;;;;;;;384.40;68.93;;;;;;;;;;5092814;28;20246;-68
2021/12/25 05:48:51;;;;;;;392.02;69.95;;;;;;;;;;5092770;28;20211;-69
2021/12/25 05:51:19;;;;;;;384.13;68.78;;;;;;;;;;5092609;28;20210;-68
2021/12/25 05:53:47;;;;;;;382.33;68.00;;;;;;;;;;5092673;28;20624;-69
2021/12/25 05:56:15;;;;;;;384.00;69.25;;;;;;;;;;5085970;28;20320;-68
2021/12/25 05:58:42;;;;;;;386.55;70.60;;;;;;;;;;5092501;28;20329;-68
2021/12/25 06:01:11;;;;;;;391.40;73.85;;;;;;;;;;5092471;28;20211;-69
2021/12/25 06:03:39;;;;;;;394.15;72.32;;;;;;;;;;5092356;28;20705;-68
2021/12/25 06:06:07;;;;;;;389.83;71.68;;;;;;;;;;5092495;28;20323;-70
2021/12/25 06:08:35;;;;;;;403.42;74.82;;;;;;;;;;5092487;28;20210;-68
2021/12/25 06:11:03;;;;;;;394.83;70.95;;;;;;;;;;5092391;28;20214;-69
2021/12/25 06:13:31;;;;;;;410.50;77.45;;;;;;;;;;5092460;28;20295;-68
2021/12/25 06:15:59;;;;;;;412.92;85.60;;;;;;;;;;5092062;28;20251;-69
2021/12/25 06:18:28;;;;;;;401.17;73.43;;;;;;;;;;5092076;28;20295;-70
2021/12/25 06:20:55;;;;;;;424.58;84.40;;;;;;;;;;5092337;28;20208;-68
2021/12/25 06:23:23;;;;;;;400.65;74.78;;;;;;;;;;5091951;28;20678;-69
2021/12/25 06:25:51;;;;;;;415.75;81.45;;;;;;;;;;5091841;28;20210;-68
2021/12/25 06:28:18;;;;;;;414.33;79.40;;;;;;;;;;5091926;28;20200;-69
2021/12/25 06:30:47;;;;;;;413.15;79.70;;;;;;;;;;5092156;28;20606;-68
2021/12/25 06:33:15;;;;;;;406.80;77.75;;;;;;;;;;5091710;28;20352;-68
2021/12/25 06:35:44;;;;;;;413.20;78.10;;;;;;;;;;5091875;28;20608;-69
2021/12/25 06:38:11;;;;;;;418.73;79.05;;;;;;;;;;5091903;28;20217;-68
2021/12/25 06:40:39;;;;;;;396.70;74.95;;;;;;;;;;5091770;28;20289;-68
2021/12/25 06:43:06;;;;;;;400.83;76.20;;;;;;;;;;5091459;28;20210;-71
2021/12/25 06:45:34;;;;;;;406.00;76.55;;;;;;;;;;5091808;28;20234;-69
2021/12/25 06:48:01;;;;;;;415.02;83.38;;;;;;;;;;5091322;28;20683;-68
2021/12/25 06:50:29;;;;;;;398.45;75.28;;;;;;;;;;5091631;28;20208;-68
2021/12/25 06:52:58;;;;;;;395.23;75.65;;;;;;;;;;5091637;28;20293;-68
2021/12/25 06:55:25;;;;;;;398.45;74.00;;;;;;;;;;5091395;28;20234;-68
2021/12/25 06:57:55;;;;;;;394.05;73.00;;;;;;;;;;5091054;28;20235;-69
2021/12/25 07:00:23;;;;;;;387.33;71.22;;;;;;;;;;5084876;28;20324;-69
2021/12/25 07:02:50;;;;;;;388.83;70.32;;;;;;;;;;5091319;28;20750;-68
2021/12/25 07:05:18;;;;;;;390.83;70.90;;;;;;;;;;5091317;28;20287;-68
2021/12/25 07:07:46;;;;;;;387.40;70.15;;;;;;;;;;5091208;28;20294;-70
2021/12/25 07:10:15;;;;;;;389.08;70.70;;;;;;;;;;5091373;28;20208;-69
2021/12/25 07:12:46;;;;;;;390.08;71.68;;;;;;;;;;5091344;28;20206;-68
2021/12/25 07:15:14;;;;;;;385.13;69.43;;;;;;;;;;5091584;28;20209;-68
2021/12/25 07:17:41;;;;;;;394.35;72.32;;;;;;;;;;5091079;28;20234;-68
2021/12/25 07:20:10;;;;;;;384.88;68.13;;;;;;;;;;5090752;28;20208;-69
2021/12/25 07:22:38;;;;;;;388.58;70.50;;;;;;;;;;5090955;28;20687;-69
2021/12/25 07:25:06;;;;;;;389.63;71.65;;;;;;;;;;5091297;28;20207;-68
2021/12/25 07:27:35;;;;;;;398.88;73.43;;;;;;;;;;5091271;28;20265;-68
2021/12/25 07:30:03;;;;;;;407.90;81.13;;;;;;;;;;5090907;28;20230;-69
2021/12/25 07:32:30;;;;;;;416.75;75.97;;;;;;;;;;5090987;28;20208;-69
2021/12/25 07:34:58;;;;;;;400.20;73.78;;;;;;;;;;5090584;28;20315;-69
2021/12/25 07:37:25;;;;;;;389.23;71.47;;;;;;;;;;5090985;28;20292;-69
2021/12/25 07:39:53;;;;;;;398.95;75.28;;;;;;;;;;5090737;28;20284;-69
2021/12/25 07:42:20;;;;;;;399.45;73.32;;;;;;;;;;5090505;28;20211;-69
2021/12/25 07:44:53;;;;;;;393.58;72.28;;;;;;;;;;5090909;28;20247;-69
2021/12/25 07:47:22;;;;;;;396.02;73.72;;;;;;;;;;5090814;28;20667;-69
2021/12/25 07:49:49;;;;;;;405.75;75.20;;;;;;;;;;5090402;28;20208;-69
2021/12/25 07:52:17;;;;;;;395.23;72.72;;;;;;;;;;5091100;28;20584;-69
2021/12/25 07:54:44;;;;;;;396.90;71.65;;;;;;;;;;5090525;28;20208;-68
2021/12/25 07:57:12;;;;;;;411.63;75.90;;;;;;;;;;5090756;28;20275;-70
2021/12/25 07:59:39;;;;;;;402.75;76.57;;;;;;;;;;5090519;28;20606;-69
2021/12/25 08:02:08;;;;;;;402.52;75.40;;;;;;;;;;5090285;28;20208;-72
2021/12/25 08:04:36;;;;;;;401.67;75.13;;;;;;;;;;5090435;28;20206;-69
2021/12/25 08:07:04;;;;;;;409.70;75.47;;;;;;;;;;5090609;28;20282;-70
2021/12/25 08:09:32;;;;;;;418.77;81.93;;;;;;;;;;5090728;28;20206;-68
2021/12/25 08:12:00;;;;;;;418.70;85.18;;;;;;;;;;5090207;28;20665;-69
2021/12/25 08:14:28;;;;;;;405.95;78.38;;;;;;;;;;5090616;28;20659;-69
2021/12/25 08:16:56;;;;;;;413.27;79.50;;;;;;;;;;5090349;28;20270;-68
2021/12/25 08:19:25;;;;;;;412.20;80.50;;;;;;;;;;5090362;28;20441;-68
2021/12/25 08:21:52;;;;;;;409.25;76.25;;;;;;;;;;5090338;28;20212;-69
2021/12/25 08:24:20;;;;;;;406.67;77.35;;;;;;;;;;5090539;28;20204;-69
2021/12/25 08:26:49;;;;;;;413.13;78.25;;;;;;;;;;5090422;28;20203;-70
2021/12/25 08:29:16;;;;;;;416.35;78.45;;;;;;;;;;5090319;28;20211;-68
2021/12/25 08:31:43;;;;;;;409.30;78.25;;;;;;;;;;5090163;28;20721;-68
2021/12/25 08:34:11;;;;;;;408.27;77.57;;;;;;;;;;5090144;28;20267;-68
2021/12/25 08:36:40;;;;;;;407.05;77.80;;;;;;;;;;5090166;28;20244;-68
2021/12/25 08:39:08;;;;;;;409.13;78.20;;;;;;;;;;5090358;28;20601;-68
2021/12/25 08:41:37;;;;;;;410.30;78.68;;;;;;;;;;5090105;28;20211;-68
2021/12/25 08:44:18;;;;;;;412.40;79.68;;;;;;;;;;5090171;28;20285;-68
2021/12/25 08:46:55;;;;;;;420.50;82.03;;;;;;;;;;5090622;28;20204;-69
2021/12/25 08:49:25;;;;;;;414.45;79.90;;;;;;;;;;5090354;28;20221;-68
2021/12/25 08:51:55;;;;;;;413.10;83.00;;;;;;;;;;5089843;28;20216;-71
2021/12/25 08:54:22;;;;;;;417.95;81.15;;;;;;;;;;5092047;28;20211;-70
2021/12/25 08:56:50;;;;;;;420.10;84.72;;;;;;;;;;5093994;28;20341;-68
2021/12/25 08:59:17;;;;;;;422.85;85.82;;;;;;;;;;5093975;28;20671;-69
2021/12/25 09:01:45;;;;;;;420.95;87.50;;;;;;;;;;5093590;28;20206;-69
2021/12/25 09:04:13;;;;;;;422.05;87.45;;;;;;;;;;5086968;28;20672;-69
2021/12/25 09:06:40;;;;;;;427.60;90.47;;;;;;;;;;5093521;28;20245;-69
2021/12/25 09:09:09;;;;;;;423.20;85.78;;;;;;;;;;5093712;28;20574;-69
2021/12/25 09:11:37;;;;;;;428.00;91.30;;;;;;;;;;5093482;28;20204;-68
2021/12/25 09:14:05;;;;;;;421.92;87.15;;;;;;;;;;5093396;28;20263;-68
2021/12/25 09:16:32;;;;;;;430.83;92.80;;;;;;;;;;5093439;28;20752;-68
2021/12/25 09:19:01;;;;;;;424.90;88.70;;;;;;;;;;5093416;28;20202;-68
2021/12/25 09:21:28;;;;;;;429.88;94.68;;;;;;;;;;5093245;28;20735;-70
2021/12/25 09:23:55;;;;;;;434.40;100.18;;;;;;;;;;5093063;28;20196;-69
2021/12/25 09:26:24;;;;;;;437.50;103.05;;;;;;;;;;5093359;28;20254;-69
2021/12/25 09:28:52;;;;;;;432.70;104.25;;;;;;;;;;5093220;28;20665;-68
2021/12/25 09:31:19;;;;;;;430.60;98.15;;;;;;;;;;5093040;28;20204;-68
2021/12/25 09:33:47;;;;;;;433.35;103.65;;;;;;;;;;5092735;28;20248;-68
2021/12/25 09:36:14;;;;;;;429.35;100.35;;;;;;;;;;5092962;28;20208;-69
2021/12/25 09:38:42;;;;;;;433.65;102.47;;;;;;;;;;5092836;28;20829;-68
2021/12/25 09:41:09;;;;;;;441.88;112.80;;;;;;;;;;5092960;28;20204;-68
2021/12/25 09:43:39;;;;;;;440.17;111.57;;;;;;;;;;5092962;28;20203;-69
2021/12/25 09:46:08;;;;;;;443.23;130.40;;;;;;;;;;5086407;28;20291;-69
2021/12/25 09:48:35;;;;;;;446.38;127.70;;;;;;;;;;5092689;28;20218;-69
2021/12/25 09:51:03;;;;;;;441.73;122.15;;;;;;;;;;5092685;28;20212;-69
2021/12/25 09:53:31;;;;;;;442.63;130.85;;;;;;;;;;5092618;28;20661;-68
2021/12/25 09:56:01;;;;;;;446.80;136.05;;;;;;;;;;5092529;28;20295;-68
2021/12/25 09:58:29;;;;;;;449.80;136.48;;;;;;;;;;5092367;28;20234;-68
2021/12/25 10:00:58;;;;;;;451.17;141.50;;;;;;;;;;5092371;28;20661;-68
2021/12/25 10:03:26;;;;;;;443.40;123.15;;;;;;;;;;5092460;28;20204;-68
2021/12/25 10:05:54;;;;;;;441.77;119.32;;;;;;;;;;5092066;28;20239;-69
2021/12/25 10:08:23;;;;;;;439.75;112.13;;;;;;;;;;5092569;28;20207;-68
2021/12/25 10:10:52;;;;;;;440.42;113.85;;;;;;;;;;5092324;28;20595;-68
2021/12/25 10:13:21;;;;;;;436.20;109.75;;;;;;;;;;5092496;28;20269;-69
2021/12/25 10:15:48;;;;;;;444.35;116.30;;;;;;;;;;5091966;28;20676;-69
2021/12/25 10:18:25;;;;;;;441.33;116.55;;;;;;;;;;5092361;28;20232;-69
2021/12/25 10:20:53;;;;;;;441.35;118.13;;;;;;;;;;5092341;28;20280;-69
2021/12/25 10:23:26;;;;;;;444.17;128.50;;;;;;;;;;5092208;28;20239;-68
2021/12/25 10:25:55;;;;;;;447.08;136.95;;;;;;;;;;5091834;28;20220;-69
2021/12/25 10:28:24;;;;;;;446.40;135.35;;;;;;;;;;5092128;28;20243;-69
2021/12/25 10:30:53;;;;;;;446.98;136.88;;;;;;;;;;5092121;28;20213;-69
2021/12/25 10:33:26;;;;;;;449.65;147.88;;;;;;;;;;5091998;28;20235;-69
2021/12/25 10:35:54;;;;;;;449.75;147.93;;;;;;;;;;5091639;28;20584;-69
2021/12/25 10:38:22;;;;;;;449.35;139.35;;;;;;;;;;5091626;28;20653;-69
2021/12/25 10:40:49;;;;;;;454.98;159.55;;;;;;;;;;5091848;28;20204;-69
2021/12/25 10:43:22;;;;;;;454.63;144.05;;;;;;;;;;5084711;28;20200;-69
2021/12/25 10:45:59;;;;;;;443.15;137.32;;;;;;;;;;5091459;28;20214;-69
2021/12/25 10:48:29;;;;;;;444.83;149.32;;;;;;;;;;5091744;28;20212;-70
2021/12/25 10:50:57;;;;;;;448.55;153.77;;;;;;;;;;5091364;28;20587;-69
2021/12/25 10:53:29;;;;;;;447.65;153.95;;;;;;;;;;5091799;28;20240;-69
2021/12/25 10:56:05;;;;;;;452.67;162.75;;;;;;;;;;5091103;28;20241;-69
2021/12/25 10:58:33;;;;;;;449.27;167.55;;;;;;;;;;5091273;28;20231;-69
2021/12/25 11:01:00;;;;;;;450.65;181.65;;;;;;;;;;5091302;28;20670;-69
2021/12/25 11:03:31;;;;;;;451.50;181.13;;;;;;;;;;5091133;28;20297;-71
2021/12/25 11:06:03;;;;;;;466.85;196.90;;;;;;;;;;5091265;28;20206;-69
2021/12/25 11:08:31;;;;;;;460.70;193.95;;;;;;;;;;5091081;28;20245;-69
2021/12/25 11:11:00;;;;;;;459.52;205.48;;;;;;;;;;5091309;28;20639;-70
2021/12/25 11:13:28;;;;;;;459.15;207.75;;;;;;;;;;5091214;28;20651;-74
2021/12/25 11:16:03;;;;;;;464.35;212.55;;;;;;;;;;5090721;28;20583;-69
2021/12/25 11:18:32;;;;;;;453.95;199.80;;;;;;;;;;5090595;28;20699;-69
2021/12/25 11:21:00;;;;;;;451.88;191.80;;;;;;;;;;5091240;28;20213;-70
2021/12/25 11:23:29;;;;;;;449.77;166.48;;;;;;;;;;5091024;28;20273;-73
2021/12/25 11:25:57;;;;;;;464.05;186.32;;;;;;;;;;5090973;28;20216;-69
2021/12/25 11:28:24;;;;;;;453.27;175.48;;;;;;;;;;5090824;28;20213;-70
2021/12/25 11:30:52;;;;;;;450.55;164.20;;;;;;;;;;5090873;28;20665;-69
2021/12/25 11:33:21;;;;;;;456.75;170.32;;;;;;;;;;5090768;28;20236;-69
2021/12/25 11:35:52;;;;;;;452.95;171.90;;;;;;;;;;5090589;28;20295;-69
2021/12/25 11:38:19;;;;;;;455.02;183.38;;;;;;;;;;5090806;28;20238;-69
2021/12/25 11:40:52;;;;;;;450.85;165.43;;;;;;;;;;5090674;28;20209;-70
2021/12/25 11:43:34;;;;;;;456.55;184.48;;;;;;;;;;5091067;28;20205;-69
2021/12/25 11:46:05;;;;;;;457.85;181.50;;;;;;;;;;5090640;28;20216;-69
2021/12/25 11:48:33;;;;;;;452.08;176.75;;;;;;;;;;5091020;28;20635;-70
2021/12/25 11:51:02;;;;;;;453.10;166.35;;;;;;;;;;5090679;28;20213;-69
2021/12/25 11:53:44;;;;;;;448.45;160.32;;;;;;;;;;5090528;28;20209;-69
2021/12/25 11:56:26;;;;;;;451.15;157.90;;;;;;;;;;5090870;28;20207;-69
2021/12/25 11:58:55;;;;;;;448.80;153.80;;;;;;;;;;5090576;28;20270;-69
2021/12/25 12:01:24;;;;;;;446.30;145.15;;;;;;;;;;5090510;28;20689;-69
2021/12/25 12:03:54;;;;;;;447.75;150.18;;;;;;;;;;5090268;28;20204;-69
2021/12/25 12:06:43;;;;;;;445.92;150.05;;;;;;;;;;5090799;28;20204;-69
2021/12/25 12:09:12;;;;;;;439.90;129.85;;;;;;;;;;5090594;28;20303;-69
2021/12/25 12:11:40;;;;;;;442.42;135.52;;;;;;;;;;5090614;28;20207;-69
2021/12/25 12:14:19;;;;;;;444.63;143.77;;;;;;;;;;5090241;28;20290;-71
2021/12/25 12:16:48;;;;;;;447.38;135.25;;;;;;;;;;5090430;28;20208;-69
2021/12/25 12:19:36;;;;;;;449.00;141.32;;;;;;;;;;5090477;28;20234;-69
2021/12/25 12:22:36;;;;;;;451.23;135.05;;;;;;;;;;5078359;28;20291;-69
2021/12/25 12:25:19;;;;;;;445.67;128.55;;;;;;;;;;5084177;28;20209;-71
2021/12/25 12:27:49;;;;;;;447.67;136.63;;;;;;;;;;5085703;28;20216;-70
2021/12/25 12:30:32;;;;;;;452.77;140.32;;;;;;;;;;5094455;28;20219;-69
2021/12/25 12:33:00;;;;;;;447.92;129.85;;;;;;;;;;5093866;28;20240;-71
2021/12/25 12:35:28;;;;;;;448.63;132.18;;;;;;;;;;5094872;28;20208;-69
2021/12/25 12:38:17;;;;;;;455.88;143.05;;;;;;;;;;5094311;28;20607;-69
2021/12/25 12:40:44;;;;;;;453.65;140.02;;;;;;;;;;5090096;28;20204;-68
2021/12/25 12:43:14;;;;;;;449.20;134.63;;;;;;;;;;5093961;28;20699;-68
2021/12/25 12:45:41;;;;;;;449.30;131.88;;;;;;;;;;5093941;28;20323;-69
2021/12/25 12:48:10;;;;;;;449.15;129.63;;;;;;;;;;5094213;28;20214;-69
2021/12/25 12:50:38;;;;;;;445.35;119.05;;;;;;;;;;5087181;28;20208;-73
2021/12/25 12:53:09;;;;;;;446.15;126.55;;;;;;;;;;5094213;28;20587;-69
2021/12/25 12:55:37;;;;;;;453.20;135.20;;;;;;;;;;5093892;28;20212;-68
2021/12/25 12:58:08;;;;;;;443.95;120.78;;;;;;;;;;5093442;28;20227;-69
2021/12/25 13:00:35;;;;;;;445.85;122.85;;;;;;;;;;5093616;28;20269;-68
2021/12/25 13:03:03;;;;;;;443.70;129.82;;;;;;;;;;5093628;28;20212;-68
2021/12/25 13:05:33;;;;;;;16.27;3.27;;;;;;;;;;5093621;28;20208;-70
2021/12/25 13:08:02;;;;;;;456.98;138.38;;;;;;;;;;5093302;28;20954;-69
2021/12/25 13:10:36;;;;;;;453.38;138.07;;;;;;;;;;5093710;28;20576;-68
2021/12/25 13:13:08;;;;;;;447.75;131.98;;;;;;;;;;5093485;28;20203;-70
2021/12/25 13:15:35;;;;;;;450.77;137.43;;;;;;;;;;5093530;28;20212;-69
2021/12/25 13:18:04;;;;;;;461.02;164.90;;;;;;;;;;5093215;28;20265;-69
2021/12/25 13:20:36;;;;;;;452.42;138.98;;;;;;;;;;5093233;28;20211;-68
2021/12/25 13:23:05;;;;;;;453.27;155.07;;;;;;;;;;5093173;28;20593;-69
2021/12/25 13:25:33;;;;;;;453.38;146.00;;;;;;;;;;5093211;28;20204;-68
2021/12/25 13:28:02;;;;;;;462.40;161.43;;;;;;;;;;5091745;28;20684;-69
2021/12/25 13:30:31;;;;;;;458.73;157.18;;;;;;;;;;5090420;28;20232;-75
2021/12/25 13:33:07;;;;;;;452.05;147.30;;;;;;;;;;5092740;28;20248;-75
2021/12/25 13:35:35;;;;;;;451.75;142.23;;;;;;;;;;5093947;28;20295;-73
2021/12/25 13:38:02;;;;;;;434.08;136.13;;;;;;;;;;5093574;28;20211;-74
2021/12/25 13:40:31;;;;;;;439.13;125.32;;;;;;;;;;5093349;28;20214;-74
2021/12/25 13:43:06;;;;;;;437.60;121.40;;;;;;;;;;5093825;28;20208;-71
2021/12/25 13:45:34;;;;;;;445.33;133.80;;;;;;;;;;5094068;28;20199;-66
2021/12/25 13:48:01;;;;;;;331.10;148.70;;;;;;;;;;5093999;28;20240;-69
2021/12/25 13:50:29;;;;;;;436.40;119.32;;;;;;;;;;5094108;28;20462;-69
2021/12/25 13:53:00;;;;;;;435.60;125.00;;;;;;;;;;5093611;28;20208;-70
2021/12/25 13:55:28;;;;;;;441.67;125.90;;;;;;;;;;5093748;28;20219;-70
2021/12/25 13:57:57;;;;;;;442.48;125.60;;;;;;;;;;5093674;28;20299;-70
2021/12/25 14:00:26;;;;;;;432.33;113.28;;;;;;;;;;5093356;28;20700;-70
2021/12/25 14:02:55;;;;;;;433.83;114.18;;;;;;;;;;5093485;28;20692;-70
2021/12/25 14:05:24;;;;;;;455.25;131.38;;;;;;;;;;5093509;28;20660;-72
2021/12/25 14:07:52;;;;;;;443.77;118.63;;;;;;;;;;5093618;28;20295;-70
2021/12/25 14:10:20;;;;;;;436.13;106.82;;;;;;;;;;5093408;28;20208;-69
2021/12/25 14:12:50;;;;;;;426.38;100.00;;;;;;;;;;5093409;28;20684;-66
2021/12/25 14:15:19;;;;;;;432.02;103.05;;;;;;;;;;5093299;28;20216;-65
2021/12/25 14:17:48;;;;;;;430.58;104.45;;;;;;;;;;5086550;28;20261;-66
2021/12/25 14:20:18;;;;;;;422.30;96.03;;;;;;;;;;5093079;28;20230;-65
2021/12/25 14:22:46;;;;;;;431.00;101.20;;;;;;;;;;5090176;28;20207;-67
2021/12/25 14:25:21;;;;;;;435.45;104.40;;;;;;;;;;5093182;28;20235;-66
2021/12/25 14:28:00;;;;;;;440.92;111.32;;;;;;;;;;5092999;28;20305;-71
2021/12/25 14:30:28;;;;;;;433.75;101.35;;;;;;;;;;5093252;28;20221;-70
2021/12/25 14:32:57;;;;;;;428.40;92.50;;;;;;;;;;5092730;28;20200;-71
2021/12/25 14:35:25;;;;;;;426.15;88.57;;;;;;;;;;5092474;28;20204;-70
